sensor_id;sensor_type;location;lat;lon;timestamp;temperature;humidity
74153;DHT22;62505;46.070;14.492;2023-12-07T00:02:04;22.50;66.70
74153;DHT22;62505;46.070;14.492;2023-12-07T00:04:31;22.50;66.80
74153;DHT22;62505;46.070;14.492;2023-12-07T00:06:59;22.50;66.70
74153;DHT22;62505;46.070;14.492;2023-12-07T00:09:26;22.50;66.70
74153;DHT22;62505;46.070;14.492;2023-12-07T00:11:54;22.50;66.70
74153;DHT22;62505;46.070;14.492;2023-12-07T00:14:21;22.50;66.70
74153;DHT22;62505;46.070;14.492;2023-12-07T00:16:48;22.50;66.60
74153;DHT22;62505;46.070;14.492;2023-12-07T00:19:16;22.50;66.80
74153;DHT22;62505;46.070;14.492;2023-12-07T00:21:43;22.50;66.70
74153;DHT22;62505;46.070;14.492;2023-12-07T00:24:11;22.40;66.70
74153;DHT22;62505;46.070;14.492;2023-12-07T00:26:38;22.50;66.80
74153;DHT22;62505;46.070;14.492;2023-12-07T00:29:05;22.40;66.70
74153;DHT22;62505;46.070;14.492;2023-12-07T00:31:33;22.40;66.70
74153;DHT22;62505;46.070;14.492;2023-12-07T00:34:00;22.40;66.70
74153;DHT22;62505;46.070;14.492;2023-12-07T00:36:27;22.40;66.70
74153;DHT22;62505;46.070;14.492;2023-12-07T00:38:54;22.40;66.90
74153;DHT22;62505;46.070;14.492;2023-12-07T00:41:23;22.40;66.70
74153;DHT22;62505;46.070;14.492;2023-12-07T00:43:50;22.40;66.80
74153;DHT22;62505;46.070;14.492;2023-12-07T00:46:17;22.40;66.70
74153;DHT22;62505;46.070;14.492;2023-12-07T00:48:44;22.40;66.80
74153;DHT22;62505;46.070;14.492;2023-12-07T00:51:11;22.40;66.70
74153;DHT22;62505;46.070;14.492;2023-12-07T00:53:38;22.40;66.70
74153;DHT22;62505;46.070;14.492;2023-12-07T00:56:07;22.50;66.70
74153;DHT22;62505;46.070;14.492;2023-12-07T00:58:35;22.40;66.40
74153;DHT22;62505;46.070;14.492;2023-12-07T01:01:04;22.40;66.40
74153;DHT22;62505;46.070;14.492;2023-12-07T01:03:31;22.50;66.60
74153;DHT22;62505;46.070;14.492;2023-12-07T01:05:58;22.50;66.40
74153;DHT22;62505;46.070;14.492;2023-12-07T01:08:25;22.50;66.40
74153;DHT22;62505;46.070;14.492;2023-12-07T01:10:52;22.50;66.50
74153;DHT22;62505;46.070;14.492;2023-12-07T01:13:19;22.50;66.40
74153;DHT22;62505;46.070;14.492;2023-12-07T01:15:48;22.50;66.50
74153;DHT22;62505;46.070;14.492;2023-12-07T01:18:15;22.40;66.40
74153;DHT22;62505;46.070;14.492;2023-12-07T01:20:42;22.50;66.40
74153;DHT22;62505;46.070;14.492;2023-12-07T01:23:09;22.50;66.40
74153;DHT22;62505;46.070;14.492;2023-12-07T01:25:36;22.40;66.30
74153;DHT22;62505;46.070;14.492;2023-12-07T01:28:03;22.50;66.40
74153;DHT22;62505;46.070;14.492;2023-12-07T01:30:31;22.40;66.40
74153;DHT22;62505;46.070;14.492;2023-12-07T01:32:59;22.50;66.30
74153;DHT22;62505;46.070;14.492;2023-12-07T01:35:26;22.40;66.40
74153;DHT22;62505;46.070;14.492;2023-12-07T01:37:54;22.40;66.40
74153;DHT22;62505;46.070;14.492;2023-12-07T01:40:21;22.40;66.40
74153;DHT22;62505;46.070;14.492;2023-12-07T01:42:52;22.40;66.40
74153;DHT22;62505;46.070;14.492;2023-12-07T01:45:19;22.40;66.40
74153;DHT22;62505;46.070;14.492;2023-12-07T01:47:47;22.40;66.40
74153;DHT22;62505;46.070;14.492;2023-12-07T01:50:18;22.40;66.40
74153;DHT22;62505;46.070;14.492;2023-12-07T01:52:59;22.40;66.40
74153;DHT22;62505;46.070;14.492;2023-12-07T01:55:29;22.40;66.40
74153;DHT22;62505;46.070;14.492;2023-12-07T01:57:57;22.40;66.40
74153;DHT22;62505;46.070;14.492;2023-12-07T02:00:25;22.40;66.40
74153;DHT22;62505;46.070;14.492;2023-12-07T02:02:53;22.40;66.30
74153;DHT22;62505;46.070;14.492;2023-12-07T02:05:22;22.40;66.40
74153;DHT22;62505;46.070;14.492;2023-12-07T02:07:50;22.40;66.30
74153;DHT22;62505;46.070;14.492;2023-12-07T02:10:17;22.40;66.30
74153;DHT22;62505;46.070;14.492;2023-12-07T02:12:46;22.40;66.20
74153;DHT22;62505;46.070;14.492;2023-12-07T02:15:13;22.40;66.20
74153;DHT22;62505;46.070;14.492;2023-12-07T02:17:46;22.40;66.20
74153;DHT22;62505;46.070;14.492;2023-12-07T02:20:23;22.40;66.00
74153;DHT22;62505;46.070;14.492;2023-12-07T02:22:55;22.40;66.10
74153;DHT22;62505;46.070;14.492;2023-12-07T02:25:26;22.50;66.10
74153;DHT22;62505;46.070;14.492;2023-12-07T02:27:57;22.40;66.00
74153;DHT22;62505;46.070;14.492;2023-12-07T02:30:24;22.50;66.20
74153;DHT22;62505;46.070;14.492;2023-12-07T02:32:52;22.40;66.20
74153;DHT22;62505;46.070;14.492;2023-12-07T02:35:19;22.40;66.30
74153;DHT22;62505;46.070;14.492;2023-12-07T02:37:48;22.40;66.30
74153;DHT22;62505;46.070;14.492;2023-12-07T02:40:17;22.40;66.20
74153;DHT22;62505;46.070;14.492;2023-12-07T02:42:44;22.40;66.20
74153;DHT22;62505;46.070;14.492;2023-12-07T02:45:14;22.40;66.20
74153;DHT22;62505;46.070;14.492;2023-12-07T02:47:41;22.40;66.20
74153;DHT22;62505;46.070;14.492;2023-12-07T02:50:11;22.40;66.20
74153;DHT22;62505;46.070;14.492;2023-12-07T02:52:39;22.40;66.20
74153;DHT22;62505;46.070;14.492;2023-12-07T02:55:07;22.40;66.20
74153;DHT22;62505;46.070;14.492;2023-12-07T02:57:34;22.40;66.20
74153;DHT22;62505;46.070;14.492;2023-12-07T03:00:03;22.40;66.30
74153;DHT22;62505;46.070;14.492;2023-12-07T03:02:33;22.40;66.20
74153;DHT22;62505;46.070;14.492;2023-12-07T03:05:01;22.40;66.30
74153;DHT22;62505;46.070;14.492;2023-12-07T03:07:28;22.40;66.10
74153;DHT22;62505;46.070;14.492;2023-12-07T03:09:55;22.40;66.10
74153;DHT22;62505;46.070;14.492;2023-12-07T03:12:22;22.40;66.00
74153;DHT22;62505;46.070;14.492;2023-12-07T03:14:49;22.40;66.00
74153;DHT22;62505;46.070;14.492;2023-12-07T03:17:16;22.40;66.20
74153;DHT22;62505;46.070;14.492;2023-12-07T03:19:45;22.40;66.20
74153;DHT22;62505;46.070;14.492;2023-12-07T03:22:12;22.40;66.10
74153;DHT22;62505;46.070;14.492;2023-12-07T03:24:45;22.40;66.00
74153;DHT22;62505;46.070;14.492;2023-12-07T03:27:13;22.40;66.10
74153;DHT22;62505;46.070;14.492;2023-12-07T03:29:40;22.40;66.10
74153;DHT22;62505;46.070;14.492;2023-12-07T03:32:07;22.40;66.10
74153;DHT22;62505;46.070;14.492;2023-12-07T03:34:34;22.40;66.00
74153;DHT22;62505;46.070;14.492;2023-12-07T03:37:03;22.40;66.10
74153;DHT22;62505;46.070;14.492;2023-12-07T03:39:30;22.40;66.20
74153;DHT22;62505;46.070;14.492;2023-12-07T03:41:58;22.40;66.20
74153;DHT22;62505;46.070;14.492;2023-12-07T03:44:25;22.40;66.10
74153;DHT22;62505;46.070;14.492;2023-12-07T03:46:52;22.40;66.20
74153;DHT22;62505;46.070;14.492;2023-12-07T03:49:19;22.40;66.10
74153;DHT22;62505;46.070;14.492;2023-12-07T03:51:47;22.40;66.00
74153;DHT22;62505;46.070;14.492;2023-12-07T03:54:15;22.50;66.20
74153;DHT22;62505;46.070;14.492;2023-12-07T03:56:42;22.40;66.00
74153;DHT22;62505;46.070;14.492;2023-12-07T03:59:09;22.40;66.00
74153;DHT22;62505;46.070;14.492;2023-12-07T04:01:36;22.40;66.00
74153;DHT22;62505;46.070;14.492;2023-12-07T04:04:05;22.40;66.10
74153;DHT22;62505;46.070;14.492;2023-12-07T04:06:33;22.40;66.00
74153;DHT22;62505;46.070;14.492;2023-12-07T04:09:00;22.40;66.00
74153;DHT22;62505;46.070;14.492;2023-12-07T04:11:28;22.40;66.00
74153;DHT22;62505;46.070;14.492;2023-12-07T04:13:55;22.40;66.00
74153;DHT22;62505;46.070;14.492;2023-12-07T04:16:22;22.40;66.00
74153;DHT22;62505;46.070;14.492;2023-12-07T04:18:49;22.40;66.10
74153;DHT22;62505;46.070;14.492;2023-12-07T04:21:16;22.40;66.10
74153;DHT22;62505;46.070;14.492;2023-12-07T04:23:43;22.40;66.00
74153;DHT22;62505;46.070;14.492;2023-12-07T04:26:10;22.40;66.10
74153;DHT22;62505;46.070;14.492;2023-12-07T04:28:39;22.40;66.10
74153;DHT22;62505;46.070;14.492;2023-12-07T04:31:06;22.40;66.20
74153;DHT22;62505;46.070;14.492;2023-12-07T04:33:33;22.40;66.10
74153;DHT22;62505;46.070;14.492;2023-12-07T04:36:00;22.40;66.20
74153;DHT22;62505;46.070;14.492;2023-12-07T04:38:27;22.40;66.20
74153;DHT22;62505;46.070;14.492;2023-12-07T04:40:54;22.40;66.10
74153;DHT22;62505;46.070;14.492;2023-12-07T04:43:22;22.40;66.20
74153;DHT22;62505;46.070;14.492;2023-12-07T04:45:50;22.40;66.10
74153;DHT22;62505;46.070;14.492;2023-12-07T04:48:17;22.40;66.30
74153;DHT22;62505;46.070;14.492;2023-12-07T04:50:46;22.40;66.20
74153;DHT22;62505;46.070;14.492;2023-12-07T04:53:13;22.40;66.20
74153;DHT22;62505;46.070;14.492;2023-12-07T04:55:40;22.40;66.20
74153;DHT22;62505;46.070;14.492;2023-12-07T04:58:11;22.40;66.30
74153;DHT22;62505;46.070;14.492;2023-12-07T05:00:38;22.40;67.10
74153;DHT22;62505;46.070;14.492;2023-12-07T05:03:07;22.40;67.10
74153;DHT22;62505;46.070;14.492;2023-12-07T05:05:34;22.40;66.30
74153;DHT22;62505;46.070;14.492;2023-12-07T05:08:02;22.40;66.30
74153;DHT22;62505;46.070;14.492;2023-12-07T05:10:29;22.40;66.30
74153;DHT22;62505;46.070;14.492;2023-12-07T05:12:56;22.40;66.40
74153;DHT22;62505;46.070;14.492;2023-12-07T05:15:23;22.40;66.30
74153;DHT22;62505;46.070;14.492;2023-12-07T05:17:51;22.40;66.40
74153;DHT22;62505;46.070;14.492;2023-12-07T05:20:19;22.40;66.30
74153;DHT22;62505;46.070;14.492;2023-12-07T05:22:48;22.40;66.40
74153;DHT22;62505;46.070;14.492;2023-12-07T05:25:15;22.50;68.60
74153;DHT22;62505;46.070;14.492;2023-12-07T05:27:42;22.50;71.20
74153;DHT22;62505;46.070;14.492;2023-12-07T05:30:10;22.50;70.90
74153;DHT22;62505;46.070;14.492;2023-12-07T05:32:38;22.60;69.60
74153;DHT22;62505;46.070;14.492;2023-12-07T05:35:06;22.60;69.60
74153;DHT22;62505;46.070;14.492;2023-12-07T05:37:35;22.60;70.00
74153;DHT22;62505;46.070;14.492;2023-12-07T05:40:03;22.60;68.70
74153;DHT22;62505;46.070;14.492;2023-12-07T05:42:30;22.60;68.90
74153;DHT22;62505;46.070;14.492;2023-12-07T05:44:58;22.50;63.50
74153;DHT22;62505;46.070;14.492;2023-12-07T05:47:26;22.30;55.00
74153;DHT22;62505;46.070;14.492;2023-12-07T05:49:53;22.10;54.10
74153;DHT22;62505;46.070;14.492;2023-12-07T05:52:23;22.00;51.90
74153;DHT22;62505;46.070;14.492;2023-12-07T05:57:17;21.90;53.30
74153;DHT22;62505;46.070;14.492;2023-12-07T05:59:44;21.90;53.90
74153;DHT22;62505;46.070;14.492;2023-12-07T06:02:11;22.00;54.60
74153;DHT22;62505;46.070;14.492;2023-12-07T06:04:38;22.00;55.30
74153;DHT22;62505;46.070;14.492;2023-12-07T06:07:05;22.00;57.00
74153;DHT22;62505;46.070;14.492;2023-12-07T06:09:32;22.10;57.90
74153;DHT22;62505;46.070;14.492;2023-12-07T06:11:59;22.20;58.20
74153;DHT22;62505;46.070;14.492;2023-12-07T06:14:28;22.20;59.70
74153;DHT22;62505;46.070;14.492;2023-12-07T06:16:55;22.30;60.60
74153;DHT22;62505;46.070;14.492;2023-12-07T06:19:22;22.30;59.60
74153;DHT22;62505;46.070;14.492;2023-12-07T06:21:49;22.30;59.90
74153;DHT22;62505;46.070;14.492;2023-12-07T06:24:17;22.30;59.70
74153;DHT22;62505;46.070;14.492;2023-12-07T06:26:44;22.30;59.80
74153;DHT22;62505;46.070;14.492;2023-12-07T06:29:11;22.30;59.90
74153;DHT22;62505;46.070;14.492;2023-12-07T06:31:44;22.40;59.80
74153;DHT22;62505;46.070;14.492;2023-12-07T06:34:11;22.40;59.90
74153;DHT22;62505;46.070;14.492;2023-12-07T06:36:38;22.40;59.80
74153;DHT22;62505;46.070;14.492;2023-12-07T06:39:05;22.40;59.90
74153;DHT22;62505;46.070;14.492;2023-12-07T06:41:33;22.40;60.10
74153;DHT22;62505;46.070;14.492;2023-12-07T06:44:00;22.40;60.00
74153;DHT22;62505;46.070;14.492;2023-12-07T06:46:27;22.40;60.40
74153;DHT22;62505;46.070;14.492;2023-12-07T06:48:55;22.40;60.20
74153;DHT22;62505;46.070;14.492;2023-12-07T06:51:22;22.40;60.50
74153;DHT22;62505;46.070;14.492;2023-12-07T06:53:50;22.40;60.80
74153;DHT22;62505;46.070;14.492;2023-12-07T06:56:17;22.40;60.70
74153;DHT22;62505;46.070;14.492;2023-12-07T06:58:44;22.50;61.00
74153;DHT22;62505;46.070;14.492;2023-12-07T07:01:11;22.50;61.00
74153;DHT22;62505;46.070;14.492;2023-12-07T07:03:38;22.50;61.00
74153;DHT22;62505;46.070;14.492;2023-12-07T07:06:07;22.50;61.40
74153;DHT22;62505;46.070;14.492;2023-12-07T07:08:34;22.40;61.70
74153;DHT22;62505;46.070;14.492;2023-12-07T07:11:01;22.40;61.30
74153;DHT22;62505;46.070;14.492;2023-12-07T07:13:29;22.40;62.30
74153;DHT22;62505;46.070;14.492;2023-12-07T07:15:56;22.40;62.20
74153;DHT22;62505;46.070;14.492;2023-12-07T07:18:23;22.50;62.10
74153;DHT22;62505;46.070;14.492;2023-12-07T07:20:51;22.40;62.10
74153;DHT22;62505;46.070;14.492;2023-12-07T07:23:19;22.40;62.40
74153;DHT22;62505;46.070;14.492;2023-12-07T07:25:46;22.40;62.50
74153;DHT22;62505;46.070;14.492;2023-12-07T07:28:13;22.40;62.50
74153;DHT22;62505;46.070;14.492;2023-12-07T07:30:40;22.50;62.50
74153;DHT22;62505;46.070;14.492;2023-12-07T07:33:08;22.50;62.60
74153;DHT22;62505;46.070;14.492;2023-12-07T07:35:35;22.60;62.50
74153;DHT22;62505;46.070;14.492;2023-12-07T07:38:02;22.60;62.80
74153;DHT22;62505;46.070;14.492;2023-12-07T07:40:30;22.60;62.70
74153;DHT22;62505;46.070;14.492;2023-12-07T07:42:57;22.60;62.60
74153;DHT22;62505;46.070;14.492;2023-12-07T07:45:24;22.60;62.60
74153;DHT22;62505;46.070;14.492;2023-12-07T07:47:51;22.70;62.60
74153;DHT22;62505;46.070;14.492;2023-12-07T07:50:19;22.70;62.60
74153;DHT22;62505;46.070;14.492;2023-12-07T07:52:46;22.70;63.50
74153;DHT22;62505;46.070;14.492;2023-12-07T07:55:14;22.70;62.90
74153;DHT22;62505;46.070;14.492;2023-12-07T07:57:42;22.70;62.90
74153;DHT22;62505;46.070;14.492;2023-12-07T08:00:10;22.80;63.30
74153;DHT22;62505;46.070;14.492;2023-12-07T08:02:39;22.80;63.30
74153;DHT22;62505;46.070;14.492;2023-12-07T08:05:06;22.80;63.40
74153;DHT22;62505;46.070;14.492;2023-12-07T08:07:35;22.80;63.60
74153;DHT22;62505;46.070;14.492;2023-12-07T08:10:02;22.80;64.00
74153;DHT22;62505;46.070;14.492;2023-12-07T08:12:29;22.80;64.30
74153;DHT22;62505;46.070;14.492;2023-12-07T08:14:57;22.90;64.50
74153;DHT22;62505;46.070;14.492;2023-12-07T08:17:24;22.90;64.70
74153;DHT22;62505;46.070;14.492;2023-12-07T08:19:52;22.90;64.80
74153;DHT22;62505;46.070;14.492;2023-12-07T08:22:19;22.90;65.20
74153;DHT22;62505;46.070;14.492;2023-12-07T08:24:46;22.90;65.30
74153;DHT22;62505;46.070;14.492;2023-12-07T08:27:14;22.90;65.50
74153;DHT22;62505;46.070;14.492;2023-12-07T08:29:41;22.90;65.90
74153;DHT22;62505;46.070;14.492;2023-12-07T08:32:09;22.90;65.60
74153;DHT22;62505;46.070;14.492;2023-12-07T08:34:37;22.90;66.50
74153;DHT22;62505;46.070;14.492;2023-12-07T08:37:04;22.90;65.50
74153;DHT22;62505;46.070;14.492;2023-12-07T08:39:31;22.90;65.70
74153;DHT22;62505;46.070;14.492;2023-12-07T08:41:58;22.90;65.50
74153;DHT22;62505;46.070;14.492;2023-12-07T08:44:26;22.90;65.90
74153;DHT22;62505;46.070;14.492;2023-12-07T08:46:53;22.90;65.20
74153;DHT22;62505;46.070;14.492;2023-12-07T08:49:22;22.90;65.30
74153;DHT22;62505;46.070;14.492;2023-12-07T08:51:49;23.00;65.40
74153;DHT22;62505;46.070;14.492;2023-12-07T08:54:16;23.00;65.50
74153;DHT22;62505;46.070;14.492;2023-12-07T08:56:44;23.00;65.40
74153;DHT22;62505;46.070;14.492;2023-12-07T08:59:11;23.00;65.50
74153;DHT22;62505;46.070;14.492;2023-12-07T09:01:38;23.00;65.60
74153;DHT22;62505;46.070;14.492;2023-12-07T09:04:05;23.00;65.60
74153;DHT22;62505;46.070;14.492;2023-12-07T09:06:35;23.00;65.70
74153;DHT22;62505;46.070;14.492;2023-12-07T09:09:03;23.10;65.70
74153;DHT22;62505;46.070;14.492;2023-12-07T09:11:30;23.10;65.90
74153;DHT22;62505;46.070;14.492;2023-12-07T09:13:57;23.10;66.00
74153;DHT22;62505;46.070;14.492;2023-12-07T09:16:29;23.10;66.10
74153;DHT22;62505;46.070;14.492;2023-12-07T09:18:56;23.10;66.40
74153;DHT22;62505;46.070;14.492;2023-12-07T09:21:23;23.10;66.70
74153;DHT22;62505;46.070;14.492;2023-12-07T09:23:52;23.20;67.10
74153;DHT22;62505;46.070;14.492;2023-12-07T09:26:19;23.20;67.80
74153;DHT22;62505;46.070;14.492;2023-12-07T09:28:47;23.20;68.40
74153;DHT22;62505;46.070;14.492;2023-12-07T09:31:14;23.20;68.60
74153;DHT22;62505;46.070;14.492;2023-12-07T09:33:42;23.20;69.20
74153;DHT22;62505;46.070;14.492;2023-12-07T09:36:09;23.20;69.80
74153;DHT22;62505;46.070;14.492;2023-12-07T09:38:37;23.20;71.50
74153;DHT22;62505;46.070;14.492;2023-12-07T09:41:06;23.20;72.10
74153;DHT22;62505;46.070;14.492;2023-12-07T09:43:33;23.20;73.40
74153;DHT22;62505;46.070;14.492;2023-12-07T09:46:00;23.20;73.10
74153;DHT22;62505;46.070;14.492;2023-12-07T09:48:27;23.20;69.60
74153;DHT22;62505;46.070;14.492;2023-12-07T09:50:56;22.80;53.60
74153;DHT22;62505;46.070;14.492;2023-12-07T09:53:23;22.40;50.90
74153;DHT22;62505;46.070;14.492;2023-12-07T09:55:50;22.30;53.70
74153;DHT22;62505;46.070;14.492;2023-12-07T09:58:18;22.30;57.90
74153;DHT22;62505;46.070;14.492;2023-12-07T10:00:47;22.40;56.60
74153;DHT22;62505;46.070;14.492;2023-12-07T10:03:20;22.40;58.30
74153;DHT22;62505;46.070;14.492;2023-12-07T10:05:54;22.50;57.60
74153;DHT22;62505;46.070;14.492;2023-12-07T10:08:27;22.50;58.20
74153;DHT22;62505;46.070;14.492;2023-12-07T10:11:02;22.50;58.20
74153;DHT22;62505;46.070;14.492;2023-12-07T10:13:32;22.50;58.40
74153;DHT22;62505;46.070;14.492;2023-12-07T10:16:10;22.50;59.20
74153;DHT22;62505;46.070;14.492;2023-12-07T10:18:37;22.50;59.30
74153;DHT22;62505;46.070;14.492;2023-12-07T10:21:09;22.50;59.80
74153;DHT22;62505;46.070;14.492;2023-12-07T10:23:36;22.50;60.20
74153;DHT22;62505;46.070;14.492;2023-12-07T10:26:05;22.50;60.40
74153;DHT22;62505;46.070;14.492;2023-12-07T10:28:35;22.50;60.60
74153;DHT22;62505;46.070;14.492;2023-12-07T10:31:08;22.50;60.90
74153;DHT22;62505;46.070;14.492;2023-12-07T10:33:36;22.50;61.20
74153;DHT22;62505;46.070;14.492;2023-12-07T10:36:03;22.50;61.30
74153;DHT22;62505;46.070;14.492;2023-12-07T10:38:32;22.50;61.40
74153;DHT22;62505;46.070;14.492;2023-12-07T10:41:04;22.50;61.70
74153;DHT22;62505;46.070;14.492;2023-12-07T10:43:38;22.50;61.80
74153;DHT22;62505;46.070;14.492;2023-12-07T10:46:09;22.50;61.90
74153;DHT22;62505;46.070;14.492;2023-12-07T10:48:37;22.50;62.00
74153;DHT22;62505;46.070;14.492;2023-12-07T10:51:07;22.50;62.10
74153;DHT22;62505;46.070;14.492;2023-12-07T10:53:40;22.50;62.20
74153;DHT22;62505;46.070;14.492;2023-12-07T10:56:11;22.50;62.30
74153;DHT22;62505;46.070;14.492;2023-12-07T10:58:42;22.40;62.30
74153;DHT22;62505;46.070;14.492;2023-12-07T11:01:11;22.40;62.40
74153;DHT22;62505;46.070;14.492;2023-12-07T11:03:39;22.40;62.40
74153;DHT22;62505;46.070;14.492;2023-12-07T11:06:08;22.40;62.60
74153;DHT22;62505;46.070;14.492;2023-12-07T11:08:38;22.40;62.50
74153;DHT22;62505;46.070;14.492;2023-12-07T11:11:10;22.40;62.50
74153;DHT22;62505;46.070;14.492;2023-12-07T11:13:44;22.40;62.60
74153;DHT22;62505;46.070;14.492;2023-12-07T11:16:13;22.40;62.60
74153;DHT22;62505;46.070;14.492;2023-12-07T11:18:40;22.40;62.80
74153;DHT22;62505;46.070;14.492;2023-12-07T11:21:07;22.50;62.70
74153;DHT22;62505;46.070;14.492;2023-12-07T11:23:34;22.50;62.90
74153;DHT22;62505;46.070;14.492;2023-12-07T11:26:03;22.50;62.70
74153;DHT22;62505;46.070;14.492;2023-12-07T11:28:35;22.50;62.80
74153;DHT22;62505;46.070;14.492;2023-12-07T11:31:06;22.50;62.80
74153;DHT22;62505;46.070;14.492;2023-12-07T11:33:33;22.50;63.10
74153;DHT22;62505;46.070;14.492;2023-12-07T11:36:05;22.50;63.00
74153;DHT22;62505;46.070;14.492;2023-12-07T11:38:33;22.50;63.10
74153;DHT22;62505;46.070;14.492;2023-12-07T11:41:00;22.50;63.10
74153;DHT22;62505;46.070;14.492;2023-12-07T11:43:37;22.50;63.10
74153;DHT22;62505;46.070;14.492;2023-12-07T11:46:11;22.50;63.10
74153;DHT22;62505;46.070;14.492;2023-12-07T11:48:38;22.50;63.00
74153;DHT22;62505;46.070;14.492;2023-12-07T11:51:06;22.60;63.10
74153;DHT22;62505;46.070;14.492;2023-12-07T11:53:35;22.50;63.00
74153;DHT22;62505;46.070;14.492;2023-12-07T11:56:04;22.60;63.10
74153;DHT22;62505;46.070;14.492;2023-12-07T11:58:33;22.60;63.00
74153;DHT22;62505;46.070;14.492;2023-12-07T12:01:01;22.50;62.90
74153;DHT22;62505;46.070;14.492;2023-12-07T12:03:30;22.50;63.00
74153;DHT22;62505;46.070;14.492;2023-12-07T12:05:58;22.60;63.10
74153;DHT22;62505;46.070;14.492;2023-12-07T12:08:25;22.50;63.10
74153;DHT22;62505;46.070;14.492;2023-12-07T12:10:53;22.50;63.10
74153;DHT22;62505;46.070;14.492;2023-12-07T12:13:26;22.50;63.20
74153;DHT22;62505;46.070;14.492;2023-12-07T12:15:53;22.50;63.20
74153;DHT22;62505;46.070;14.492;2023-12-07T12:18:21;22.50;63.20
74153;DHT22;62505;46.070;14.492;2023-12-07T12:20:51;22.50;63.30
74153;DHT22;62505;46.070;14.492;2023-12-07T12:23:19;22.50;63.30
74153;DHT22;62505;46.070;14.492;2023-12-07T12:25:46;22.50;63.30
74153;DHT22;62505;46.070;14.492;2023-12-07T12:28:16;22.50;63.20
74153;DHT22;62505;46.070;14.492;2023-12-07T12:30:44;22.60;63.30
74153;DHT22;62505;46.070;14.492;2023-12-07T12:33:12;22.50;63.40
74153;DHT22;62505;46.070;14.492;2023-12-07T12:35:40;22.50;63.20
74153;DHT22;62505;46.070;14.492;2023-12-07T12:38:11;22.60;63.10
74153;DHT22;62505;46.070;14.492;2023-12-07T12:40:38;22.50;63.10
74153;DHT22;62505;46.070;14.492;2023-12-07T12:43:07;22.50;62.90
74153;DHT22;62505;46.070;14.492;2023-12-07T12:45:34;22.50;63.10
74153;DHT22;62505;46.070;14.492;2023-12-07T12:48:01;22.50;63.20
74153;DHT22;62505;46.070;14.492;2023-12-07T12:50:36;22.50;63.20
74153;DHT22;62505;46.070;14.492;2023-12-07T12:53:04;22.50;63.20
74153;DHT22;62505;46.070;14.492;2023-12-07T12:55:33;22.50;63.40
74153;DHT22;62505;46.070;14.492;2023-12-07T12:58:02;22.50;63.60
74153;DHT22;62505;46.070;14.492;2023-12-07T13:00:30;22.60;64.10
74153;DHT22;62505;46.070;14.492;2023-12-07T13:02:58;22.60;64.30
74153;DHT22;62505;46.070;14.492;2023-12-07T13:05:25;22.60;64.50
74153;DHT22;62505;46.070;14.492;2023-12-07T13:07:52;22.70;64.60
74153;DHT22;62505;46.070;14.492;2023-12-07T13:10:19;22.70;64.80
74153;DHT22;62505;46.070;14.492;2023-12-07T13:12:48;22.70;64.70
74153;DHT22;62505;46.070;14.492;2023-12-07T13:15:15;22.70;64.50
74153;DHT22;62505;46.070;14.492;2023-12-07T13:17:43;22.70;64.30
74153;DHT22;62505;46.070;14.492;2023-12-07T13:20:11;22.70;64.10
74153;DHT22;62505;46.070;14.492;2023-12-07T13:22:39;22.60;64.00
74153;DHT22;62505;46.070;14.492;2023-12-07T13:25:07;22.60;64.10
74153;DHT22;62505;46.070;14.492;2023-12-07T13:27:34;22.60;64.00
74153;DHT22;62505;46.070;14.492;2023-12-07T13:30:03;22.60;63.90
74153;DHT22;62505;46.070;14.492;2023-12-07T13:32:32;22.60;63.70
74153;DHT22;62505;46.070;14.492;2023-12-07T13:34:59;22.50;63.70
74153;DHT22;62505;46.070;14.492;2023-12-07T13:37:27;22.50;63.60
74153;DHT22;62505;46.070;14.492;2023-12-07T13:39:54;22.50;63.60
74153;DHT22;62505;46.070;14.492;2023-12-07T13:42:24;22.50;63.70
74153;DHT22;62505;46.070;14.492;2023-12-07T13:44:53;22.50;63.60
74153;DHT22;62505;46.070;14.492;2023-12-07T13:47:24;22.50;63.50
74153;DHT22;62505;46.070;14.492;2023-12-07T13:49:57;22.50;63.60
74153;DHT22;62505;46.070;14.492;2023-12-07T13:52:24;22.50;63.50
74153;DHT22;62505;46.070;14.492;2023-12-07T13:54:54;22.50;63.50
74153;DHT22;62505;46.070;14.492;2023-12-07T13:57:22;22.50;63.40
74153;DHT22;62505;46.070;14.492;2023-12-07T13:59:50;22.50;63.20
74153;DHT22;62505;46.070;14.492;2023-12-07T14:02:17;22.50;63.40
74153;DHT22;62505;46.070;14.492;2023-12-07T14:04:46;22.40;63.10
74153;DHT22;62505;46.070;14.492;2023-12-07T14:07:16;22.50;63.20
74153;DHT22;62505;46.070;14.492;2023-12-07T14:09:44;22.50;65.30
74153;DHT22;62505;46.070;14.492;2023-12-07T14:12:13;22.50;65.20
74153;DHT22;62505;46.070;14.492;2023-12-07T14:14:40;22.50;65.10
74153;DHT22;62505;46.070;14.492;2023-12-07T14:17:07;22.50;65.50
74153;DHT22;62505;46.070;14.492;2023-12-07T14:19:34;22.60;65.70
74153;DHT22;62505;46.070;14.492;2023-12-07T14:22:03;22.60;65.60
74153;DHT22;62505;46.070;14.492;2023-12-07T14:24:31;22.60;65.10
74153;DHT22;62505;46.070;14.492;2023-12-07T14:26:58;22.50;64.60
74153;DHT22;62505;46.070;14.492;2023-12-07T14:29:25;22.60;64.30
74153;DHT22;62505;46.070;14.492;2023-12-07T14:31:52;22.50;64.30
74153;DHT22;62505;46.070;14.492;2023-12-07T14:34:19;22.50;64.40
74153;DHT22;62505;46.070;14.492;2023-12-07T14:36:46;22.50;64.50
74153;DHT22;62505;46.070;14.492;2023-12-07T14:39:14;22.50;64.40
74153;DHT22;62505;46.070;14.492;2023-12-07T14:41:43;22.50;65.70
74153;DHT22;62505;46.070;14.492;2023-12-07T14:44:12;22.50;64.70
74153;DHT22;62505;46.070;14.492;2023-12-07T14:46:41;22.50;64.50
74153;DHT22;62505;46.070;14.492;2023-12-07T14:49:08;22.50;64.20
74153;DHT22;62505;46.070;14.492;2023-12-07T14:51:35;22.50;64.20
74153;DHT22;62505;46.070;14.492;2023-12-07T14:54:02;22.50;64.40
74153;DHT22;62505;46.070;14.492;2023-12-07T14:56:31;22.50;64.40
74153;DHT22;62505;46.070;14.492;2023-12-07T14:58:59;22.50;65.00
74153;DHT22;62505;46.070;14.492;2023-12-07T15:01:26;22.50;65.10
74153;DHT22;62505;46.070;14.492;2023-12-07T15:03:53;22.50;65.40
74153;DHT22;62505;46.070;14.492;2023-12-07T15:06:20;22.50;65.40
74153;DHT22;62505;46.070;14.492;2023-12-07T15:08:47;22.50;65.30
74153;DHT22;62505;46.070;14.492;2023-12-07T15:11:14;22.50;65.70
74153;DHT22;62505;46.070;14.492;2023-12-07T15:13:43;22.50;65.50
74153;DHT22;62505;46.070;14.492;2023-12-07T15:16:10;22.50;65.60
74153;DHT22;62505;46.070;14.492;2023-12-07T15:18:38;22.50;65.70
74153;DHT22;62505;46.070;14.492;2023-12-07T15:21:10;22.50;65.70
74153;DHT22;62505;46.070;14.492;2023-12-07T15:23:38;22.50;65.70